createdAt,value
2017-12-02T00:00:02.843Z,54.55
2017-12-02T00:00:06.905Z,54.47
2017-12-02T00:00:10.929Z,54.20
2017-12-02T00:00:14.953Z,54.15
2017-12-02T00:00:27.506Z,54.35
2017-12-02T00:00:31.503Z,54.79
2017-12-02T00:00:35.526Z,55.10
2017-12-02T00:00:39.784Z,54.65
2017-12-02T00:00:44.815Z,54.00
2017-12-02T00:00:49.842Z,53.23
2017-12-02T00:00:54.870Z,53.67
2017-12-02T00:00:59.891Z,53.47
2017-12-02T00:01:04.206Z,53.57
2017-12-02T00:01:08.489Z,53.80
2017-12-02T00:01:13.516Z,53.40
2017-12-02T00:01:17.822Z,53.50
2017-12-02T00:01:22.831Z,53.85
2017-12-02T00:01:27.143Z,54.33
2017-12-02T00:01:31.384Z,53.53
2017-12-02T00:01:35.666Z,53.50
2017-12-02T00:01:39.933Z,54.00
2017-12-02T00:01:44.521Z,54.10
2017-12-02T00:01:49.573Z,55.20
2017-12-02T00:01:53.843Z,54.97
2017-12-02T00:01:58.110Z,54.97
2017-12-02T00:02:02.374Z,55.30
2017-12-02T00:02:06.637Z,55.45
2017-12-02T00:02:11.702Z,55.30
2017-12-02T00:02:15.955Z,55.03
2017-12-02T00:02:20.215Z,54.95
2017-12-02T00:02:24.508Z,54.65
2017-12-02T00:02:28.747Z,55.35
2017-12-02T00:02:33.003Z,55.60
2017-12-02T00:02:37.265Z,55.25
2017-12-02T00:02:42.276Z,55.20
2017-12-02T00:02:46.523Z,55.83
2017-12-02T00:02:50.807Z,56.33
2017-12-02T00:02:55.846Z,55.90
2017-12-02T00:03:00.105Z,55.30
2017-12-02T00:03:05.134Z,54.00
2017-12-02T00:03:10.160Z,54.13
2017-12-02T00:03:15.170Z,54.83
2017-12-02T00:03:20.187Z,55.37
2017-12-02T00:03:25.204Z,55.37
2017-12-02T00:03:30.219Z,54.97
2017-12-02T00:03:35.242Z,54.73
2017-12-02T00:03:39.520Z,55.23
2017-12-02T00:03:44.103Z,55.33
2017-12-02T00:03:48.363Z,54.25
2017-12-02T00:03:52.621Z,54.90
2017-12-02T00:03:56.875Z,56.00
2017-12-02T00:04:01.125Z,56.85
2017-12-02T00:04:05.388Z,56.80
2017-12-02T00:04:09.657Z,57.20
2017-12-02T00:04:13.935Z,57.80
2017-12-02T00:04:18.194Z,57.05
2017-12-02T00:04:22.448Z,56.50
2017-12-02T00:04:26.716Z,56.00
2017-12-02T00:04:30.973Z,56.35
2017-12-02T00:04:35.243Z,55.20
2017-12-02T00:04:40.274Z,55.50
2017-12-02T00:04:45.323Z,55.10
2017-12-02T00:04:49.574Z,54.67
2017-12-02T00:04:54.596Z,53.65
2017-12-02T00:04:59.628Z,52.90
2017-12-02T00:05:04.687Z,52.80
2017-12-02T00:05:08.932Z,52.37
2017-12-02T00:05:13.201Z,52.30
2017-12-02T00:05:17.447Z,52.50
2017-12-02T00:05:22.476Z,52.60
2017-12-02T00:05:26.724Z,52.50
2017-12-02T00:05:30.981Z,52.47
2017-12-02T00:05:35.262Z,52.85
2017-12-02T00:05:40.299Z,53.00
2017-12-02T00:05:44.545Z,53.10
2017-12-02T00:05:48.808Z,52.95
2017-12-02T00:05:53.067Z,52.63
2017-12-02T00:05:57.325Z,52.85
2017-12-02T00:06:01.584Z,53.15
2017-12-02T00:06:06.616Z,53.73
2017-12-02T00:06:10.886Z,53.70
2017-12-02T00:06:15.142Z,53.95
2017-12-02T00:06:19.432Z,53.70
2017-12-02T00:06:23.684Z,53.90
2017-12-02T00:06:27.962Z,54.35
2017-12-02T00:06:32.212Z,54.40
2017-12-02T00:06:36.462Z,54.15
2017-12-02T00:06:40.722Z,53.57
2017-12-02T00:06:44.986Z,53.65
2017-12-02T00:06:49.332Z,54.00
2017-12-02T00:06:54.320Z,54.40
2017-12-02T00:06:59.349Z,54.80
2017-12-02T00:07:04.367Z,54.83
2017-12-02T00:07:08.623Z,54.97
2017-12-02T00:07:12.902Z,55.05
2017-12-02T00:07:17.149Z,55.10
2017-12-02T00:07:22.178Z,55.60
2017-12-02T00:07:27.191Z,55.40
2017-12-02T00:07:32.199Z,55.50
2017-12-02T00:07:37.263Z,56.03
2017-12-02T00:07:41.524Z,56.77
2017-12-02T00:07:46.545Z,56.90
2017-12-02T00:07:51.567Z,57.00
2017-12-02T00:07:56.608Z,57.20
2017-12-02T00:08:00.847Z,57.13
2017-12-02T00:08:05.108Z,57.70
2017-12-02T00:08:09.367Z,57.63
2017-12-02T00:08:13.615Z,58.10
2017-12-02T00:08:17.860Z,58.50
2017-12-02T00:08:22.130Z,58.83
2017-12-02T00:08:26.380Z,59.60
2017-12-02T00:08:31.391Z,59.70
2017-12-02T00:08:36.440Z,60.20
2017-12-02T00:08:40.698Z,60.60
2017-12-02T00:08:44.943Z,60.87
2017-12-02T00:08:49.201Z,60.90
2017-12-02T00:08:53.458Z,60.95
2017-12-02T00:08:57.723Z,61.25
2017-12-02T00:09:02.735Z,61.87
2017-12-02T00:09:07.772Z,62.93
2017-12-02T00:09:12.037Z,62.97
2017-12-02T00:09:16.280Z,62.65
2017-12-02T00:09:20.532Z,61.70
2017-12-02T00:09:24.779Z,61.13
2017-12-02T00:09:29.082Z,60.95
2017-12-02T00:09:33.341Z,61.50
2017-12-02T00:09:37.691Z,61.40
2017-12-02T00:09:41.941Z,61.70
2017-12-02T00:09:46.225Z,62.50
2017-12-02T00:09:50.463Z,62.40
2017-12-02T00:09:55.479Z,62.10
2017-12-02T00:10:00.492Z,63.47
2017-12-02T00:10:05.528Z,63.47
2017-12-02T00:10:09.806Z,62.67
2017-12-02T00:10:14.064Z,62.65
2017-12-02T00:10:18.303Z,63.05
2017-12-02T00:10:22.567Z,63.00
2017-12-02T00:10:27.612Z,63.40
2017-12-02T00:10:31.886Z,63.53
2017-12-02T00:10:36.127Z,62.45
2017-12-02T00:10:41.223Z,62.10
2017-12-02T00:10:45.433Z,61.10
2017-12-02T00:10:49.703Z,60.90
2017-12-02T00:10:53.960Z,60.90
2017-12-02T00:10:58.986Z,59.55
2017-12-02T00:11:04.006Z,59.05
2017-12-02T00:11:08.295Z,57.73
2017-12-02T00:11:13.322Z,57.25
2017-12-02T00:11:18.364Z,56.50
2017-12-02T00:11:22.616Z,56.03
2017-12-02T00:11:27.041Z,55.45
2017-12-02T00:11:32.077Z,54.90
2017-12-02T00:11:36.330Z,55.40
2017-12-02T00:11:40.602Z,54.50
2017-12-02T00:11:44.863Z,53.55
2017-12-02T00:11:49.879Z,53.70
2017-12-02T00:11:54.899Z,53.60
2017-12-02T00:11:59.920Z,52.83
2017-12-02T00:12:04.185Z,52.00
2017-12-02T00:12:08.456Z,52.35
2017-12-02T00:12:12.718Z,53.15
2017-12-02T00:12:17.750Z,53.03
2017-12-02T00:12:21.999Z,52.83
2017-12-02T00:12:26.264Z,52.95
2017-12-02T00:12:30.523Z,53.00
2017-12-02T00:12:34.764Z,52.53
2017-12-02T00:12:39.029Z,53.15
2017-12-02T00:12:44.054Z,53.90
2017-12-02T00:12:49.072Z,53.57
2017-12-02T00:12:54.080Z,52.37
2017-12-02T00:12:58.361Z,52.70
2017-12-02T00:13:02.623Z,52.90
2017-12-02T00:13:06.889Z,53.05
2017-12-02T00:13:11.907Z,51.65
2017-12-02T00:13:16.928Z,51.33
2017-12-02T00:13:21.966Z,51.80
2017-12-02T00:13:26.246Z,52.80
2017-12-02T00:13:31.264Z,52.90
2017-12-02T00:13:36.276Z,53.07
2017-12-02T00:13:41.288Z,52.97
2017-12-02T00:13:46.696Z,52.43
2017-12-02T00:13:50.930Z,52.40
2017-12-02T00:13:55.962Z,52.55
2017-12-02T00:14:00.217Z,52.23
2017-12-02T00:14:04.482Z,52.10
2017-12-02T00:14:08.732Z,52.60
2017-12-02T00:14:13.762Z,53.20
2017-12-02T00:14:18.792Z,53.10
2017-12-02T00:14:23.796Z,52.40
2017-12-02T00:14:28.829Z,50.67
2017-12-02T00:14:33.854Z,50.00
2017-12-02T00:14:38.132Z,51.30
2017-12-02T00:14:43.163Z,51.25
2017-12-02T00:14:48.191Z,51.63
2017-12-02T00:14:52.479Z,51.67
2017-12-02T00:14:56.720Z,51.40
2017-12-02T00:15:00.993Z,50.60
2017-12-02T00:15:05.246Z,50.15
2017-12-02T00:15:09.524Z,50.10
2017-12-02T00:15:13.782Z,50.20
2017-12-02T00:15:18.813Z,49.87
2017-12-02T00:15:23.067Z,49.90
2017-12-02T00:15:27.329Z,50.25
2017-12-02T00:15:31.592Z,50.10
2017-12-02T00:15:36.626Z,48.30
2017-12-02T00:15:40.899Z,48.10
2017-12-02T00:15:45.143Z,47.70
2017-12-02T00:15:49.394Z,47.85
2017-12-02T00:15:53.649Z,48.10
2017-12-02T00:15:57.926Z,48.30
2017-12-02T00:16:02.957Z,48.15
2017-12-02T00:16:07.197Z,47.93
2017-12-02T00:16:11.488Z,47.20
2017-12-02T00:16:15.753Z,48.10
2017-12-02T00:16:20.018Z,48.50
2017-12-02T00:16:24.270Z,48.70
2017-12-02T00:16:28.534Z,49.27
2017-12-02T00:16:33.589Z,49.40
2017-12-02T00:16:37.836Z,49.50
2017-12-02T00:16:42.100Z,49.70
2017-12-02T00:16:46.364Z,50.00
2017-12-02T00:16:51.394Z,50.23
2017-12-02T00:16:55.653Z,49.90
2017-12-02T00:16:59.917Z,49.70
2017-12-02T00:17:04.184Z,50.20
2017-12-02T00:17:09.210Z,51.17
2017-12-02T00:17:13.463Z,51.23
2017-12-02T00:17:17.726Z,51.95
2017-12-02T00:17:21.995Z,52.20
2017-12-02T00:17:27.011Z,52.40
2017-12-02T00:17:32.059Z,52.63
2017-12-02T00:17:36.346Z,53.23
2017-12-02T00:17:40.625Z,53.30
2017-12-02T00:17:44.901Z,52.80
2017-12-02T00:17:50.657Z,52.70
2017-12-02T00:17:55.687Z,52.43
2017-12-02T00:18:00.700Z,53.07
2017-12-02T00:18:05.734Z,53.67
2017-12-02T00:18:09.993Z,54.07
2017-12-02T00:18:14.251Z,53.87
2017-12-02T00:18:18.517Z,53.40
2017-12-02T00:18:23.545Z,52.90
2017-12-02T00:18:28.551Z,52.53
2017-12-02T00:18:33.596Z,52.70
2017-12-02T00:18:37.867Z,52.03
2017-12-02T00:18:42.131Z,51.55
2017-12-02T00:18:46.388Z,51.90
2017-12-02T00:18:51.424Z,51.90
2017-12-02T00:18:55.976Z,52.17
2017-12-02T00:19:00.276Z,52.23
2017-12-02T00:19:04.530Z,51.65
2017-12-02T00:19:08.806Z,50.30
2017-12-02T00:19:13.710Z,49.87
2017-12-02T00:19:18.750Z,49.25
2017-12-02T00:19:22.997Z,48.87
2017-12-02T00:19:27.278Z,49.05
2017-12-02T00:19:31.538Z,48.95
2017-12-02T00:19:36.563Z,48.57
2017-12-02T00:19:41.584Z,49.07
2017-12-02T00:19:46.630Z,49.97
2017-12-02T00:19:50.887Z,49.97
2017-12-02T00:19:55.133Z,50.00
2017-12-02T00:19:59.397Z,50.20
2017-12-02T00:20:04.494Z,49.70
2017-12-02T00:20:08.748Z,50.37
2017-12-02T00:20:13.049Z,51.45
2017-12-02T00:20:17.319Z,51.60
2017-12-02T00:20:22.350Z,51.83
2017-12-02T00:20:27.381Z,52.70
2017-12-02T00:20:31.636Z,52.73
2017-12-02T00:20:35.897Z,52.75
2017-12-02T00:20:40.157Z,51.90
2017-12-02T00:20:44.448Z,51.70
2017-12-02T00:20:49.489Z,51.30
2017-12-02T00:20:54.511Z,52.53
2017-12-02T00:20:58.762Z,52.77
2017-12-02T00:21:03.822Z,53.20
2017-12-02T00:21:08.108Z,53.28
2017-12-02T00:21:13.181Z,52.40
2017-12-02T00:21:17.436Z,52.87
2017-12-02T00:21:21.708Z,52.50
2017-12-02T00:21:25.976Z,51.60
2017-12-02T00:21:30.250Z,51.23
2017-12-02T00:21:34.523Z,51.25
2017-12-02T00:21:38.780Z,51.90
2017-12-02T00:21:43.048Z,52.17
2017-12-02T00:21:48.076Z,51.65
2017-12-02T00:21:52.338Z,51.07
2017-12-02T00:21:56.594Z,50.80
2017-12-02T00:22:00.859Z,50.53
2017-12-02T00:22:05.892Z,50.85
2017-12-02T00:22:10.135Z,50.87
2017-12-02T00:22:14.399Z,50.65
2017-12-02T00:22:18.654Z,50.05
2017-12-02T00:22:23.003Z,50.33
2017-12-02T00:22:28.038Z,50.20
2017-12-02T00:22:32.304Z,51.23
2017-12-02T00:22:36.607Z,51.30
2017-12-02T00:22:41.236Z,50.33
2017-12-02T00:22:45.497Z,50.30
2017-12-02T00:22:50.541Z,50.13
2017-12-02T00:22:54.806Z,49.53
2017-12-02T00:22:59.052Z,49.55
2017-12-02T00:23:03.325Z,49.60
2017-12-02T00:23:08.339Z,49.67
2017-12-02T00:23:13.389Z,49.17
2017-12-02T00:23:17.664Z,49.37
2017-12-02T00:23:21.923Z,48.90
2017-12-02T00:23:26.172Z,48.60
2017-12-02T00:23:30.455Z,47.83
2017-12-02T00:23:34.706Z,47.60
2017-12-02T00:23:38.970Z,48.20
2017-12-02T00:23:43.231Z,48.70
2017-12-02T00:23:47.530Z,49.07
2017-12-02T00:23:51.770Z,48.95
2017-12-02T00:23:56.779Z,49.05
2017-12-02T00:24:01.824Z,49.33
2017-12-02T00:24:06.063Z,49.10
2017-12-02T00:24:10.348Z,49.00
2017-12-02T00:24:14.601Z,50.10
2017-12-02T00:24:18.858Z,50.75
2017-12-02T00:24:23.119Z,51.83
2017-12-02T00:24:27.363Z,52.30
2017-12-02T00:24:32.384Z,52.75
2017-12-02T00:24:36.645Z,52.33
2017-12-02T00:24:40.917Z,52.00
2017-12-02T00:24:45.932Z,51.90
2017-12-02T00:24:50.976Z,52.27
2017-12-02T00:24:56.009Z,53.40
2017-12-02T00:25:00.272Z,53.77
2017-12-02T00:25:05.305Z,53.70
2017-12-02T00:25:09.567Z,53.73
2017-12-02T00:25:13.821Z,53.50
2017-12-02T00:25:18.078Z,52.95
2017-12-02T00:25:22.324Z,52.40
2017-12-02T00:25:26.571Z,52.00
2017-12-02T00:25:30.852Z,51.67
2017-12-02T00:25:35.099Z,52.25
2017-12-02T00:25:40.119Z,52.10
2017-12-02T00:25:44.459Z,51.60
2017-12-02T00:25:48.778Z,51.30
2017-12-02T00:25:53.034Z,49.60
2017-12-02T00:25:57.291Z,49.10
2017-12-02T00:26:01.554Z,48.40
2017-12-02T00:26:05.821Z,49.20
2017-12-02T00:26:10.848Z,49.20
2017-12-02T00:26:15.121Z,48.80
2017-12-02T00:26:19.377Z,47.95
2017-12-02T00:26:23.648Z,47.60
2017-12-02T00:26:28.673Z,47.55
2017-12-02T00:26:32.920Z,48.30
2017-12-02T00:26:37.950Z,48.50
2017-12-02T00:26:42.210Z,48.83
2017-12-02T00:26:46.477Z,48.83
2017-12-02T00:26:51.512Z,49.20
2017-12-02T00:26:55.770Z,49.70
2017-12-02T00:27:00.019Z,50.15
2017-12-02T00:27:04.281Z,49.63
2017-12-02T00:27:09.329Z,49.65
2017-12-02T00:27:13.585Z,49.73
2017-12-02T00:27:17.838Z,49.95
2017-12-02T00:27:22.083Z,50.35
2017-12-02T00:27:26.358Z,50.63
2017-12-02T00:27:30.604Z,49.55
2017-12-02T00:27:35.620Z,48.40
2017-12-02T00:27:40.640Z,47.57
2017-12-02T00:27:45.665Z,47.73
2017-12-02T00:27:50.698Z,47.60
2017-12-02T00:27:54.961Z,46.90
2017-12-02T00:27:59.253Z,46.53
2017-12-02T00:28:03.588Z,46.50
2017-12-02T00:28:08.616Z,45.85
2017-12-02T00:28:13.627Z,45.97
2017-12-02T00:28:18.636Z,46.42
2017-12-02T00:28:23.656Z,47.07
2017-12-02T00:28:28.690Z,47.53
2017-12-02T00:28:32.958Z,48.53
2017-12-02T00:28:37.212Z,50.15
2017-12-02T00:28:41.472Z,50.25
2017-12-02T00:28:46.505Z,51.00
2017-12-02T00:28:51.537Z,52.23
2017-12-02T00:28:55.790Z,52.83
2017-12-02T00:29:00.064Z,52.65
2017-12-02T00:29:04.333Z,52.70
2017-12-02T00:29:08.960Z,52.80
2017-12-02T00:29:13.203Z,52.65
2017-12-02T00:29:17.474Z,52.35
2017-12-02T00:29:21.742Z,51.70
2017-12-02T00:29:26.000Z,51.25
2017-12-02T00:29:30.274Z,51.35
2017-12-02T00:29:34.523Z,50.60
2017-12-02T00:29:39.569Z,50.30
2017-12-02T00:29:43.834Z,50.70
2017-12-02T00:29:48.080Z,49.00
2017-12-02T00:29:52.389Z,49.07
2017-12-02T00:29:56.668Z,48.90
2017-12-02T00:30:01.714Z,48.60
2017-12-02T00:30:05.973Z,48.00
2017-12-02T00:30:10.301Z,47.63
2017-12-02T00:30:14.566Z,47.55
2017-12-02T00:30:19.581Z,47.60
2017-12-02T00:30:23.843Z,48.00
2017-12-02T00:30:28.120Z,47.65
2017-12-02T00:30:32.395Z,47.13
2017-12-02T00:30:37.420Z,47.25
2017-12-02T00:30:41.688Z,46.60
2017-12-02T00:30:45.963Z,47.00
2017-12-02T00:30:50.266Z,47.40
2017-12-02T00:30:55.288Z,47.20
2017-12-02T00:30:59.553Z,47.30
2017-12-02T00:31:03.796Z,47.60
2017-12-02T00:31:08.065Z,48.00
2017-12-02T00:31:12.312Z,47.90
2017-12-02T00:31:16.582Z,47.85
2017-12-02T00:31:20.842Z,47.85
2017-12-02T00:31:25.877Z,48.17
2017-12-02T00:31:30.158Z,48.70
2017-12-02T00:31:35.299Z,49.40
2017-12-02T00:31:39.536Z,50.07
2017-12-02T00:31:43.864Z,49.80
2017-12-02T00:31:48.922Z,49.70
2017-12-02T00:31:53.170Z,49.80
2017-12-02T00:31:57.429Z,49.65
2017-12-02T00:32:01.728Z,49.90
2017-12-02T00:32:05.989Z,49.90
2017-12-02T00:32:11.022Z,50.05
2017-12-02T00:32:15.293Z,50.20
2017-12-02T00:32:19.558Z,50.50
2017-12-02T00:32:23.836Z,50.17
2017-12-02T00:32:28.084Z,50.55
2017-12-02T00:32:32.332Z,50.15
2017-12-02T00:32:36.593Z,49.43
2017-12-02T00:32:40.866Z,49.25
2017-12-02T00:32:45.144Z,49.05
2017-12-02T00:32:49.427Z,48.80
2017-12-02T00:32:54.478Z,48.40
2017-12-02T00:32:58.736Z,48.60
2017-12-02T00:33:03.752Z,48.90
2017-12-02T00:33:08.778Z,48.97
2017-12-02T00:33:13.801Z,48.90
2017-12-02T00:33:18.066Z,48.90
2017-12-02T00:33:22.322Z,49.53
2017-12-02T00:33:26.559Z,49.35
2017-12-02T00:33:30.840Z,49.40
2017-12-02T00:33:35.130Z,49.20
2017-12-02T00:33:39.394Z,50.23
2017-12-02T00:33:44.427Z,50.75
2017-12-02T00:33:48.693Z,50.10
2017-12-02T00:33:52.956Z,49.65
2017-12-02T00:33:57.221Z,49.13
2017-12-02T00:34:02.248Z,48.90
2017-12-02T00:34:06.495Z,48.37
2017-12-02T00:34:10.763Z,48.15
2017-12-02T00:34:15.015Z,48.50
2017-12-02T00:34:19.282Z,48.45
2017-12-02T00:34:23.543Z,48.30
2017-12-02T00:34:28.561Z,48.65
2017-12-02T00:34:32.811Z,48.40
2017-12-02T00:34:37.078Z,48.27
2017-12-02T00:34:41.326Z,48.50
2017-12-02T00:34:45.580Z,49.50
2017-12-02T00:34:49.846Z,50.70
2017-12-02T00:34:54.865Z,51.43
2017-12-02T00:34:59.908Z,51.33
2017-12-02T00:35:04.214Z,52.17
2017-12-02T00:35:08.480Z,53.50
2017-12-02T00:35:13.517Z,53.40
2017-12-02T00:35:18.536Z,52.50
2017-12-02T00:35:22.808Z,51.90
2017-12-02T00:35:27.078Z,51.55
2017-12-02T00:35:31.333Z,51.70
2017-12-02T00:35:36.353Z,51.65
2017-12-02T00:35:41.364Z,50.05
2017-12-02T00:35:46.418Z,49.10
2017-12-02T00:35:50.680Z,48.63
2017-12-02T00:35:55.761Z,48.85
2017-12-02T00:36:00.778Z,49.00
2017-12-02T00:36:05.045Z,48.40
2017-12-02T00:36:09.298Z,46.95
2017-12-02T00:36:13.555Z,47.80
2017-12-02T00:36:17.824Z,48.05
2017-12-02T00:36:22.102Z,48.30
2017-12-02T00:36:26.383Z,48.20
2017-12-02T00:36:30.644Z,48.20
2017-12-02T00:36:34.916Z,48.20
2017-12-02T00:36:39.162Z,48.85
2017-12-02T00:36:43.420Z,48.70
2017-12-02T00:36:48.544Z,48.25
2017-12-02T00:36:53.588Z,47.97
2017-12-02T00:36:58.589Z,48.10
2017-12-02T00:37:03.603Z,48.33
2017-12-02T00:37:08.650Z,48.63
2017-12-02T00:37:12.911Z,48.17
2017-12-02T00:37:17.159Z,48.67
2017-12-02T00:37:21.433Z,49.35
2017-12-02T00:37:26.472Z,48.85
2017-12-02T00:37:30.733Z,48.87
2017-12-02T00:37:35.767Z,49.00
2017-12-02T00:37:40.016Z,49.20
2017-12-02T00:37:44.265Z,49.90
2017-12-02T00:37:48.524Z,50.00
2017-12-02T00:37:52.780Z,50.00
2017-12-02T00:37:57.064Z,49.80
2017-12-02T00:38:02.099Z,49.65
2017-12-02T00:38:06.370Z,49.50
2017-12-02T00:38:11.412Z,49.70
2017-12-02T00:38:15.891Z,50.30
2017-12-02T00:38:20.152Z,49.30
2017-12-02T00:38:25.167Z,49.35
2017-12-02T00:38:29.433Z,49.03
2017-12-02T00:38:33.685Z,48.40
2017-12-02T00:38:37.940Z,47.90
2017-12-02T00:38:42.193Z,47.50
2017-12-02T00:38:46.460Z,47.20
2017-12-02T00:38:50.755Z,47.40
2017-12-02T00:38:55.010Z,47.60
2017-12-02T00:39:00.054Z,47.50
2017-12-02T00:39:04.304Z,48.00
2017-12-02T00:39:08.560Z,48.63
2017-12-02T00:39:12.818Z,48.50
2017-12-02T00:39:17.089Z,48.35
2017-12-02T00:39:21.353Z,49.40
2017-12-02T00:39:25.623Z,50.03
2017-12-02T00:39:29.898Z,51.15
2017-12-02T00:39:34.148Z,51.70
2017-12-02T00:39:38.436Z,51.97
2017-12-02T00:39:43.482Z,52.25
2017-12-02T00:39:47.768Z,52.13
2017-12-02T00:39:52.032Z,52.00
2017-12-02T00:39:56.288Z,51.47
2017-12-02T00:40:00.592Z,51.60
2017-12-02T00:40:04.830Z,50.60
2017-12-02T00:40:09.105Z,50.35
2017-12-02T00:40:13.382Z,49.60
2017-12-02T00:40:17.644Z,49.40
2017-12-02T00:40:22.692Z,48.90
2017-12-02T00:40:28.176Z,48.63
2017-12-02T00:40:32.432Z,48.55
2017-12-02T00:40:36.697Z,48.90
2017-12-02T00:40:40.946Z,48.85
2017-12-02T00:40:45.246Z,49.50
2017-12-02T00:40:49.472Z,49.65
2017-12-02T00:40:53.843Z,49.55
2017-12-02T00:40:58.838Z,50.00
2017-12-02T00:41:03.861Z,50.50
2017-12-02T00:41:08.141Z,50.47
2017-12-02T00:41:12.399Z,50.70
2017-12-02T00:41:16.640Z,51.10
2017-12-02T00:41:21.696Z,50.70
2017-12-02T00:41:25.985Z,50.37
2017-12-02T00:41:30.259Z,50.10
2017-12-02T00:41:35.313Z,49.50
2017-12-02T00:41:39.618Z,50.10
2017-12-02T00:41:43.867Z,50.17
2017-12-02T00:41:48.121Z,49.70
2017-12-02T00:41:58.156Z,49.55
2017-12-02T00:42:02.437Z,49.21
2017-12-02T00:42:07.445Z,49.73
2017-12-02T00:42:12.467Z,49.97
2017-12-02T00:42:17.488Z,49.27
2017-12-02T00:42:21.780Z,48.70
2017-12-02T00:42:26.809Z,48.80
2017-12-02T00:42:31.817Z,49.80
2017-12-02T00:42:36.082Z,49.67
2017-12-02T00:42:40.345Z,49.65
2017-12-02T00:42:44.622Z,49.60
2017-12-02T00:42:48.884Z,50.40
2017-12-02T00:42:53.930Z,50.90
2017-12-02T00:42:58.198Z,51.80
2017-12-02T00:43:02.478Z,51.63
2017-12-02T00:43:06.707Z,51.15
2017-12-02T00:43:10.971Z,51.05
2017-12-02T00:43:15.219Z,51.80
2017-12-02T00:43:20.265Z,52.15
2017-12-02T00:43:24.523Z,52.40
2017-12-02T00:43:28.794Z,52.45
2017-12-02T00:43:33.057Z,52.95
2017-12-02T00:43:38.072Z,52.90
2017-12-02T00:43:43.094Z,52.73
2017-12-02T00:43:48.136Z,52.73
2017-12-02T00:43:52.394Z,52.97
2017-12-02T00:43:56.656Z,52.45
2017-12-02T00:44:00.917Z,52.45
2017-12-02T00:44:05.983Z,52.30
2017-12-02T00:44:10.253Z,52.90
2017-12-02T00:44:14.552Z,52.60
2017-12-02T00:44:18.828Z,52.40
2017-12-02T00:44:23.117Z,53.30
2017-12-02T00:44:27.362Z,52.80
2017-12-02T00:44:31.601Z,52.00
2017-12-02T00:44:35.867Z,52.10
2017-12-02T00:44:40.125Z,52.30
2017-12-02T00:44:44.376Z,52.10
2017-12-02T00:44:48.641Z,52.50
2017-12-02T00:44:53.997Z,52.40
2017-12-02T00:44:58.223Z,52.30
2017-12-02T00:45:02.489Z,52.15
2017-12-02T00:45:06.745Z,52.27
2017-12-02T00:45:10.992Z,52.00
2017-12-02T00:45:15.250Z,52.50
2017-12-02T00:45:19.507Z,52.50
2017-12-02T00:45:23.763Z,52.10
2017-12-02T00:45:28.784Z,52.55
2017-12-02T00:45:33.840Z,52.13
2017-12-02T00:45:38.084Z,51.13
2017-12-02T00:45:42.332Z,50.65
2017-12-02T00:45:46.615Z,50.30
2017-12-02T00:45:51.645Z,49.55
2017-12-02T00:45:55.906Z,49.70
2017-12-02T00:46:00.161Z,49.90
2017-12-02T00:46:04.430Z,50.70
2017-12-02T00:46:09.445Z,50.35
2017-12-02T00:46:14.491Z,49.70
2017-12-02T00:46:18.739Z,49.67
2017-12-02T00:46:23.026Z,48.85
2017-12-02T00:46:27.280Z,48.93
2017-12-02T00:46:31.527Z,48.80
2017-12-02T00:46:35.813Z,50.20
2017-12-02T00:46:40.070Z,50.50
2017-12-02T00:46:45.088Z,50.90
2017-12-02T00:46:50.123Z,51.30
2017-12-02T00:46:54.388Z,50.97
2017-12-02T00:46:58.641Z,51.35
2017-12-02T00:47:02.910Z,50.80
2017-12-02T00:47:07.920Z,50.37
2017-12-02T00:47:12.950Z,50.73
2017-12-02T00:47:17.973Z,50.63
2017-12-02T00:47:22.222Z,51.70
2017-12-02T00:47:26.487Z,51.85
2017-12-02T00:47:30.762Z,52.40
2017-12-02T00:47:35.793Z,52.77
2017-12-02T00:47:40.050Z,53.10
2017-12-02T00:47:44.300Z,52.65
2017-12-02T00:47:48.556Z,52.40
2017-12-02T00:47:52.832Z,53.63
2017-12-02T00:47:57.085Z,53.50
2017-12-02T00:48:01.347Z,54.05
2017-12-02T00:48:05.592Z,55.05
2017-12-02T00:48:09.869Z,55.10
2017-12-02T00:48:14.900Z,54.75
2017-12-02T00:48:19.919Z,54.43
2017-12-02T00:48:24.940Z,54.70
2017-12-02T00:48:29.214Z,55.57
2017-12-02T00:48:33.471Z,54.70
2017-12-02T00:48:37.728Z,54.63
2017-12-02T00:48:42.769Z,54.30
2017-12-02T00:48:47.020Z,55.20
2017-12-02T00:48:51.295Z,55.55
2017-12-02T00:48:55.545Z,55.50
2017-12-02T00:48:59.788Z,55.35
2017-12-02T00:49:04.052Z,54.35
2017-12-02T00:49:09.076Z,54.65
2017-12-02T00:49:14.116Z,55.67
2017-12-02T00:49:18.374Z,55.93
2017-12-02T00:49:22.631Z,55.30
2017-12-02T00:49:26.897Z,54.10
2017-12-02T00:49:31.908Z,53.55
2017-12-02T00:49:36.955Z,53.97
2017-12-02T00:49:41.206Z,53.30
2017-12-02T00:49:45.464Z,52.45
2017-12-02T00:49:49.734Z,51.10
2017-12-02T00:49:54.756Z,50.65
2017-12-02T00:49:59.014Z,50.07
2017-12-02T00:50:03.293Z,49.83
2017-12-02T00:50:07.557Z,49.40
2017-12-02T00:50:11.805Z,48.45
2017-12-02T00:50:16.081Z,47.63
2017-12-02T00:50:20.367Z,47.50
2017-12-02T00:50:25.357Z,47.40
2017-12-02T00:50:30.375Z,47.57
2017-12-02T00:50:35.410Z,47.13
2017-12-02T00:50:40.425Z,47.50
2017-12-02T00:50:45.458Z,47.77
2017-12-02T00:50:49.725Z,48.17
2017-12-02T00:50:54.077Z,48.93
2017-12-02T00:50:58.305Z,49.80
2017-12-02T00:51:02.559Z,50.75
2017-12-02T00:51:06.858Z,51.30
2017-12-02T00:51:11.268Z,51.95
2017-12-02T00:51:15.521Z,52.65
2017-12-02T00:51:19.776Z,53.57
2017-12-02T00:51:24.048Z,54.00
2017-12-02T00:51:29.080Z,54.20
2017-12-02T00:51:33.334Z,53.87
2017-12-02T00:51:37.586Z,54.30
2017-12-02T00:51:41.852Z,54.20
2017-12-02T00:51:46.123Z,54.40
2017-12-02T00:51:50.379Z,55.05
2017-12-02T00:51:54.636Z,55.43
2017-12-02T00:51:58.902Z,54.85
2017-12-02T00:52:03.171Z,54.00
2017-12-02T00:52:08.198Z,53.00
2017-12-02T00:52:12.475Z,52.63
2017-12-02T00:52:16.720Z,51.80
2017-12-02T00:52:20.991Z,51.75
2017-12-02T00:52:26.000Z,51.75
2017-12-02T00:52:31.019Z,51.27
2017-12-02T00:52:36.031Z,51.55
2017-12-02T00:52:41.057Z,51.97
2017-12-02T00:52:46.071Z,52.47
2017-12-02T00:52:51.105Z,51.87
2017-12-02T00:52:56.111Z,50.30
2017-12-02T00:53:01.146Z,50.37
2017-12-02T00:53:05.699Z,50.43
2017-12-02T00:53:09.983Z,51.00
2017-12-02T00:53:14.201Z,50.60
2017-12-02T00:53:18.461Z,50.80
2017-12-02T00:53:22.707Z,50.90
2017-12-02T00:53:26.983Z,51.50
2017-12-02T00:53:31.433Z,52.47
2017-12-02T00:53:35.694Z,52.50
2017-12-02T00:53:39.950Z,52.00
2017-12-02T00:53:44.987Z,51.85
2017-12-02T00:53:49.257Z,51.90
2017-12-02T00:53:53.592Z,52.25
2017-12-02T00:53:57.838Z,52.03
2017-12-02T00:54:02.092Z,52.30
2017-12-02T00:54:06.370Z,52.15
2017-12-02T00:54:11.388Z,51.80
2017-12-02T00:54:16.402Z,52.50
2017-12-02T00:54:20.701Z,52.23
2017-12-02T00:54:25.734Z,51.93
2017-12-02T00:54:30.002Z,51.50
2017-12-02T00:54:34.265Z,51.50
2017-12-02T00:54:38.534Z,51.85
2017-12-02T00:54:42.804Z,51.83
2017-12-02T00:54:47.858Z,52.25
2017-12-02T00:54:52.216Z,53.10
2017-12-02T00:54:56.483Z,53.55
2017-12-02T00:55:00.753Z,53.63
2017-12-02T00:55:05.791Z,54.05
2017-12-02T00:55:10.056Z,55.03
2017-12-02T00:55:14.304Z,54.85
2017-12-02T00:55:18.586Z,55.10
2017-12-02T00:55:22.846Z,55.25
2017-12-02T00:55:27.125Z,54.60
2017-12-02T00:55:31.363Z,53.93
2017-12-02T00:55:36.419Z,53.55
2017-12-02T00:55:40.655Z,53.57
2017-12-02T00:55:44.939Z,53.30
2017-12-02T00:55:49.210Z,52.50
2017-12-02T00:55:53.479Z,52.50
2017-12-02T00:55:58.501Z,52.85
2017-12-02T00:56:03.527Z,52.93
2017-12-02T00:56:07.793Z,52.80
2017-12-02T00:56:12.062Z,52.80
2017-12-02T00:56:16.322Z,52.43
2017-12-02T00:56:21.351Z,52.25
2017-12-02T00:56:25.647Z,52.60
2017-12-02T00:56:29.888Z,53.75
2017-12-02T00:56:34.178Z,54.10
2017-12-02T00:56:38.430Z,53.40
2017-12-02T00:56:42.686Z,53.45
2017-12-02T00:56:46.942Z,53.70
2017-12-02T00:56:51.968Z,53.75
2017-12-02T00:56:57.001Z,54.37
2017-12-02T00:57:01.248Z,54.53
2017-12-02T00:57:05.509Z,54.40
2017-12-02T00:57:09.767Z,53.60
2017-12-02T00:57:14.034Z,53.40
2017-12-02T00:57:18.315Z,53.70
2017-12-02T00:57:22.567Z,53.80
2017-12-02T00:57:26.835Z,53.47
2017-12-02T00:57:31.119Z,53.00
2017-12-02T00:57:35.366Z,52.85
2017-12-02T00:57:39.672Z,53.40
2017-12-02T00:57:43.943Z,52.65
2017-12-02T00:57:48.987Z,52.30
2017-12-02T00:57:53.268Z,52.03
2017-12-02T00:57:57.533Z,51.25
2017-12-02T00:58:01.832Z,51.57
2017-12-02T00:58:06.071Z,52.15
2017-12-02T00:58:10.334Z,53.15